메인 페이지
METAR-TAF:

METAR-TAF

공항 :

오타와 맥도널드 카르티에 국제공항

오타와, 온타리오, 캐나다

위도: 45-19N, 경도: 075-40W, 고도: 116m

현재 날씨관측

예보는 33분 전, 14:00시(UTC)에 발표되었습니다.
3kt
온도 -4°C
습도 93%
기압 1018 hPa
시정: 24.1km
고도 500ft 상공 구름 조금
고도 5900ft 상공 흐림

METAR: CYOW 191400Z 19003KT 15SM FEW005 OVC059 M04/M05 A3007 RMK SC1SC8 SC TR SLP192

시각: 09:33 (14:33 UTC)

예보

예보는 2 시간 55분 전, 11:38시(UTC)에 발표되었습니다.
예보 대상 시간: 19일 12시부터 20일 12시까지 (UTC)
북북동5kt
시정: 10km
고도 600ft 상공 구름 많음
고도 4000ft 상공 흐림
일시적
19일 12시부터 19일 14시까지 (UTC)
고도 600ft 상공 구름 조금
고도 4000ft 상공 흐림
19일 1400시부터 (UTC)
서남서5kt
시정: 10km
고도 1200ft 상공 흐림
일시적
19일 14시부터 19일 16시까지 (UTC)
고도 2500ft 상공 흐림
19일 1600시부터 (UTC)
서남서6kt
시정: 10km
고도 1500ft 상공 구름 많음
고도 5000ft 상공 흐림
약한눈
일시적
19일 16시부터 20일 05시까지 (UTC)
시정: 10km
고도 1500ft 상공 구름 보통
고도 5000ft 상공 흐림
전환 중
19일 20시부터 19일 22시까지 (UTC)
8kt
20일 0500시부터 (UTC)
동북동8kt
시정: 3.2km
고도 800ft 상공 흐림
약한눈

TAF: CYOW 191138Z 1912/2012 03005KT P6SM BKN006 OVC040 TEMPO 1912/1914 FEW006 OVC040 FM191400 24005KT P6SM OVC012 TEMPO 1914/1916 OVC025 FM191600 25006KT P6SM -SN BKN015 OVC050 TEMPO 1916/2005 P6SM NSW SCT015 OVC050 BECMG 1920/1922 01008KT FM200500 06008KT 2SM -SN OVC008 RMK NXT FCST BY 191500Z

4,000개 이상의 공항 관측 자료 및 예보 (METAR 및 TAF 보고).

지도상에서 검색 가능한 기상관측소가 노란 점과 빨간 점으로 표시되어 있습니다.

기상관측소 명을 보려면 표시 위로 마우스를 이동하세요.

날씨 관측과 예보를 보려면 클릭하세요.

지도 변경 : 확대하려면 엑스 표시가 있는 녹색 버튼, 축소하려면 빼기 표시가 있는 녹색 버튼, 다음 페이지의 지도를 보려면 녹색 화살표를 클릭하세요.


METAR-TAF: